sensor_id;sensor_type;location;lat;lon;timestamp;P1;durP1;ratioP1;P2;durP2;ratioP2
33760;SDS011;20084;47.912;19.044;2023-03-04T00:00:25;20.10;;;12.48;;
33760;SDS011;20084;47.912;19.044;2023-03-04T00:02:51;19.40;;;13.32;;
33760;SDS011;20084;47.912;19.044;2023-03-04T00:05:17;17.30;;;11.07;;
33760;SDS011;20084;47.912;19.044;2023-03-04T00:07:42;16.20;;;10.65;;
33760;SDS011;20084;47.912;19.044;2023-03-04T00:10:09;18.13;;;11.30;;
33760;SDS011;20084;47.912;19.044;2023-03-04T00:12:35;17.70;;;10.13;;
33760;SDS011;20084;47.912;19.044;2023-03-04T00:15:01;15.73;;;9.80;;
33760;SDS011;20084;47.912;19.044;2023-03-04T00:17:27;16.60;;;10.45;;
33760;SDS011;20084;47.912;19.044;2023-03-04T00:19:55;16.33;;;10.60;;
33760;SDS011;20084;47.912;19.044;2023-03-04T00:22:21;18.10;;;10.80;;
33760;SDS011;20084;47.912;19.044;2023-03-04T00:24:47;19.70;;;12.15;;
33760;SDS011;20084;47.912;19.044;2023-03-04T00:27:13;17.58;;;10.35;;
33760;SDS011;20084;47.912;19.044;2023-03-04T00:29:38;14.15;;;9.85;;
33760;SDS011;20084;47.912;19.044;2023-03-04T00:32:04;15.90;;;9.20;;
33760;SDS011;20084;47.912;19.044;2023-03-04T00:34:30;19.58;;;10.07;;
33760;SDS011;20084;47.912;19.044;2023-03-04T00:36:55;16.13;;;10.30;;
33760;SDS011;20084;47.912;19.044;2023-03-04T00:39:25;15.48;;;10.07;;
33760;SDS011;20084;47.912;19.044;2023-03-04T00:41:52;16.63;;;9.20;;
33760;SDS011;20084;47.912;19.044;2023-03-04T00:44:18;15.77;;;9.02;;
33760;SDS011;20084;47.912;19.044;2023-03-04T00:46:44;14.32;;;9.20;;
33760;SDS011;20084;47.912;19.044;2023-03-04T00:49:09;16.17;;;8.82;;
33760;SDS011;20084;47.912;19.044;2023-03-04T00:51:35;16.50;;;9.25;;
33760;SDS011;20084;47.912;19.044;2023-03-04T00:54:01;13.98;;;8.57;;
33760;SDS011;20084;47.912;19.044;2023-03-04T00:56:27;14.32;;;8.57;;
33760;SDS011;20084;47.912;19.044;2023-03-04T00:58:52;15.65;;;8.70;;
33760;SDS011;20084;47.912;19.044;2023-03-04T01:01:18;14.32;;;8.55;;
33760;SDS011;20084;47.912;19.044;2023-03-04T01:03:44;12.13;;;8.15;;
33760;SDS011;20084;47.912;19.044;2023-03-04T01:06:10;16.33;;;8.30;;
33760;SDS011;20084;47.912;19.044;2023-03-04T01:08:36;14.95;;;7.95;;
33760;SDS011;20084;47.912;19.044;2023-03-04T01:11:02;11.20;;;7.03;;
33760;SDS011;20084;47.912;19.044;2023-03-04T01:13:28;13.82;;;8.02;;
33760;SDS011;20084;47.912;19.044;2023-03-04T01:15:53;14.85;;;8.60;;
33760;SDS011;20084;47.912;19.044;2023-03-04T01:18:20;19.65;;;8.95;;
33760;SDS011;20084;47.912;19.044;2023-03-04T01:20:45;15.43;;;8.10;;
33760;SDS011;20084;47.912;19.044;2023-03-04T01:23:11;12.35;;;7.57;;
33760;SDS011;20084;47.912;19.044;2023-03-04T01:25:37;13.85;;;7.55;;
33760;SDS011;20084;47.912;19.044;2023-03-04T01:28:03;12.38;;;8.00;;
33760;SDS011;20084;47.912;19.044;2023-03-04T01:30:28;16.52;;;8.48;;
33760;SDS011;20084;47.912;19.044;2023-03-04T01:32:54;12.75;;;8.68;;
33760;SDS011;20084;47.912;19.044;2023-03-04T01:35:20;12.45;;;7.13;;
33760;SDS011;20084;47.912;19.044;2023-03-04T01:37:46;12.50;;;7.97;;
33760;SDS011;20084;47.912;19.044;2023-03-04T01:40:11;13.23;;;7.88;;
33760;SDS011;20084;47.912;19.044;2023-03-04T01:42:38;12.63;;;7.50;;
33760;SDS011;20084;47.912;19.044;2023-03-04T01:45:04;12.88;;;7.13;;
33760;SDS011;20084;47.912;19.044;2023-03-04T01:47:31;13.07;;;7.70;;
33760;SDS011;20084;47.912;19.044;2023-03-04T01:50:00;13.27;;;8.63;;
33760;SDS011;20084;47.912;19.044;2023-03-04T01:52:28;15.93;;;10.13;;
33760;SDS011;20084;47.912;19.044;2023-03-04T01:54:54;13.38;;;7.82;;
33760;SDS011;20084;47.912;19.044;2023-03-04T01:57:20;12.50;;;6.82;;
33760;SDS011;20084;47.912;19.044;2023-03-04T02:00:10;12.00;;;7.30;;
33760;SDS011;20084;47.912;19.044;2023-03-04T02:02:39;11.30;;;6.65;;
33760;SDS011;20084;47.912;19.044;2023-03-04T02:05:05;11.35;;;6.80;;
33760;SDS011;20084;47.912;19.044;2023-03-04T02:07:31;12.52;;;7.05;;
33760;SDS011;20084;47.912;19.044;2023-03-04T02:09:56;10.65;;;6.93;;
33760;SDS011;20084;47.912;19.044;2023-03-04T02:12:22;10.93;;;6.75;;
33760;SDS011;20084;47.912;19.044;2023-03-04T02:14:48;11.35;;;7.45;;
33760;SDS011;20084;47.912;19.044;2023-03-04T02:17:13;14.43;;;7.72;;
33760;SDS011;20084;47.912;19.044;2023-03-04T02:19:46;9.98;;;6.57;;
33760;SDS011;20084;47.912;19.044;2023-03-04T02:22:17;11.70;;;7.47;;
33760;SDS011;20084;47.912;19.044;2023-03-04T02:24:45;11.20;;;7.03;;
33760;SDS011;20084;47.912;19.044;2023-03-04T02:27:17;13.02;;;7.55;;
33760;SDS011;20084;47.912;19.044;2023-03-04T02:29:43;12.50;;;7.45;;
33760;SDS011;20084;47.912;19.044;2023-03-04T02:32:11;12.13;;;6.93;;
33760;SDS011;20084;47.912;19.044;2023-03-04T02:34:40;13.63;;;7.90;;
33760;SDS011;20084;47.912;19.044;2023-03-04T02:37:11;14.57;;;8.48;;
33760;SDS011;20084;47.912;19.044;2023-03-04T02:39:38;12.48;;;7.65;;
33760;SDS011;20084;47.912;19.044;2023-03-04T02:42:06;13.77;;;7.32;;
33760;SDS011;20084;47.912;19.044;2023-03-04T02:44:32;13.13;;;7.53;;
33760;SDS011;20084;47.912;19.044;2023-03-04T02:47:00;12.32;;;7.57;;
33760;SDS011;20084;47.912;19.044;2023-03-04T02:49:27;15.48;;;8.50;;
33760;SDS011;20084;47.912;19.044;2023-03-04T02:52:02;11.68;;;8.20;;
33760;SDS011;20084;47.912;19.044;2023-03-04T02:54:49;13.52;;;8.02;;
33760;SDS011;20084;47.912;19.044;2023-03-04T02:57:15;14.80;;;9.18;;
33760;SDS011;20084;47.912;19.044;2023-03-04T02:59:41;12.55;;;7.85;;
33760;SDS011;20084;47.912;19.044;2023-03-04T03:02:08;12.77;;;7.30;;
33760;SDS011;20084;47.912;19.044;2023-03-04T03:04:34;12.05;;;7.15;;
33760;SDS011;20084;47.912;19.044;2023-03-04T03:07:01;11.15;;;7.57;;
33760;SDS011;20084;47.912;19.044;2023-03-04T03:09:28;12.73;;;7.60;;
33760;SDS011;20084;47.912;19.044;2023-03-04T03:11:53;14.02;;;8.23;;
33760;SDS011;20084;47.912;19.044;2023-03-04T03:14:19;12.13;;;7.55;;
33760;SDS011;20084;47.912;19.044;2023-03-04T03:16:45;13.15;;;6.97;;
33760;SDS011;20084;47.912;19.044;2023-03-04T03:19:10;13.50;;;6.90;;
33760;SDS011;20084;47.912;19.044;2023-03-04T03:21:36;12.98;;;7.55;;
33760;SDS011;20084;47.912;19.044;2023-03-04T03:24:02;12.93;;;7.32;;
33760;SDS011;20084;47.912;19.044;2023-03-04T03:26:28;13.52;;;7.40;;
33760;SDS011;20084;47.912;19.044;2023-03-04T03:28:53;10.93;;;6.82;;
33760;SDS011;20084;47.912;19.044;2023-03-04T03:31:19;13.52;;;7.88;;
33760;SDS011;20084;47.912;19.044;2023-03-04T03:33:45;15.65;;;7.50;;
33760;SDS011;20084;47.912;19.044;2023-03-04T03:36:10;13.45;;;8.65;;
33760;SDS011;20084;47.912;19.044;2023-03-04T03:38:36;17.27;;;8.00;;
33760;SDS011;20084;47.912;19.044;2023-03-04T03:41:02;13.55;;;8.10;;
33760;SDS011;20084;47.912;19.044;2023-03-04T03:43:29;15.00;;;9.32;;
33760;SDS011;20084;47.912;19.044;2023-03-04T03:45:54;16.23;;;9.25;;
33760;SDS011;20084;47.912;19.044;2023-03-04T03:48:20;16.15;;;8.95;;
33760;SDS011;20084;47.912;19.044;2023-03-04T03:50:46;14.07;;;8.20;;
33760;SDS011;20084;47.912;19.044;2023-03-04T03:53:11;13.02;;;7.15;;
33760;SDS011;20084;47.912;19.044;2023-03-04T03:55:37;13.98;;;7.28;;
33760;SDS011;20084;47.912;19.044;2023-03-04T03:58:03;14.98;;;7.88;;
33760;SDS011;20084;47.912;19.044;2023-03-04T04:00:29;12.73;;;7.90;;
33760;SDS011;20084;47.912;19.044;2023-03-04T04:02:55;11.32;;;7.00;;
33760;SDS011;20084;47.912;19.044;2023-03-04T04:05:23;13.15;;;7.88;;
33760;SDS011;20084;47.912;19.044;2023-03-04T04:07:49;13.05;;;7.97;;
33760;SDS011;20084;47.912;19.044;2023-03-04T04:10:15;14.60;;;8.57;;
33760;SDS011;20084;47.912;19.044;2023-03-04T04:12:40;13.32;;;7.53;;
33760;SDS011;20084;47.912;19.044;2023-03-04T04:15:06;13.95;;;7.88;;
33760;SDS011;20084;47.912;19.044;2023-03-04T04:17:34;12.60;;;7.55;;
33760;SDS011;20084;47.912;19.044;2023-03-04T04:20:00;15.98;;;8.35;;
33760;SDS011;20084;47.912;19.044;2023-03-04T04:22:26;11.77;;;7.60;;
33760;SDS011;20084;47.912;19.044;2023-03-04T04:24:51;12.77;;;8.32;;
33760;SDS011;20084;47.912;19.044;2023-03-04T04:27:17;14.88;;;7.78;;
33760;SDS011;20084;47.912;19.044;2023-03-04T04:29:42;16.55;;;7.53;;
33760;SDS011;20084;47.912;19.044;2023-03-04T04:32:09;13.20;;;8.23;;
33760;SDS011;20084;47.912;19.044;2023-03-04T04:34:37;12.70;;;7.82;;
33760;SDS011;20084;47.912;19.044;2023-03-04T04:37:03;17.73;;;9.05;;
33760;SDS011;20084;47.912;19.044;2023-03-04T04:39:28;12.82;;;8.27;;
33760;SDS011;20084;47.912;19.044;2023-03-04T04:41:54;13.40;;;8.73;;
33760;SDS011;20084;47.912;19.044;2023-03-04T04:44:20;13.85;;;8.82;;
33760;SDS011;20084;47.912;19.044;2023-03-04T04:46:45;13.75;;;7.68;;
33760;SDS011;20084;47.912;19.044;2023-03-04T04:49:11;14.85;;;8.02;;
33760;SDS011;20084;47.912;19.044;2023-03-04T04:51:37;14.25;;;8.15;;
33760;SDS011;20084;47.912;19.044;2023-03-04T04:54:03;12.15;;;7.28;;
33760;SDS011;20084;47.912;19.044;2023-03-04T04:56:29;11.98;;;7.93;;
33760;SDS011;20084;47.912;19.044;2023-03-04T04:58:56;14.48;;;8.48;;
33760;SDS011;20084;47.912;19.044;2023-03-04T05:01:23;14.88;;;9.07;;
33760;SDS011;20084;47.912;19.044;2023-03-04T05:03:49;14.20;;;8.75;;
33760;SDS011;20084;47.912;19.044;2023-03-04T05:06:17;13.52;;;8.05;;
33760;SDS011;20084;47.912;19.044;2023-03-04T05:08:45;15.02;;;8.15;;
33760;SDS011;20084;47.912;19.044;2023-03-04T05:11:11;15.60;;;7.75;;
33760;SDS011;20084;47.912;19.044;2023-03-04T05:13:37;14.07;;;8.27;;
33760;SDS011;20084;47.912;19.044;2023-03-04T05:16:03;16.40;;;8.70;;
33760;SDS011;20084;47.912;19.044;2023-03-04T05:18:29;15.27;;;8.27;;
33760;SDS011;20084;47.912;19.044;2023-03-04T05:20:56;13.90;;;7.63;;
33760;SDS011;20084;47.912;19.044;2023-03-04T05:23:24;11.90;;;7.82;;
33760;SDS011;20084;47.912;19.044;2023-03-04T05:25:51;15.68;;;8.77;;
33760;SDS011;20084;47.912;19.044;2023-03-04T05:28:17;15.43;;;8.85;;
33760;SDS011;20084;47.912;19.044;2023-03-04T05:30:43;14.82;;;9.10;;
33760;SDS011;20084;47.912;19.044;2023-03-04T05:33:10;15.40;;;8.80;;
33760;SDS011;20084;47.912;19.044;2023-03-04T05:35:38;16.58;;;8.32;;
33760;SDS011;20084;47.912;19.044;2023-03-04T05:38:05;14.95;;;8.25;;
33760;SDS011;20084;47.912;19.044;2023-03-04T05:40:33;14.55;;;8.05;;
33760;SDS011;20084;47.912;19.044;2023-03-04T05:42:59;15.45;;;7.47;;
33760;SDS011;20084;47.912;19.044;2023-03-04T05:45:25;15.75;;;8.05;;
33760;SDS011;20084;47.912;19.044;2023-03-04T05:47:51;15.13;;;8.68;;
33760;SDS011;20084;47.912;19.044;2023-03-04T05:50:18;14.10;;;7.90;;
33760;SDS011;20084;47.912;19.044;2023-03-04T05:52:44;13.82;;;7.80;;
33760;SDS011;20084;47.912;19.044;2023-03-04T05:55:10;13.13;;;8.43;;
33760;SDS011;20084;47.912;19.044;2023-03-04T05:57:37;17.50;;;7.72;;
33760;SDS011;20084;47.912;19.044;2023-03-04T06:00:03;19.95;;;11.35;;
33760;SDS011;20084;47.912;19.044;2023-03-04T06:02:33;29.08;;;18.30;;
33760;SDS011;20084;47.912;19.044;2023-03-04T06:04:59;27.23;;;14.88;;
33760;SDS011;20084;47.912;19.044;2023-03-04T06:07:25;18.63;;;10.82;;
33760;SDS011;20084;47.912;19.044;2023-03-04T06:09:51;22.90;;;11.95;;
33760;SDS011;20084;47.912;19.044;2023-03-04T06:12:16;22.00;;;13.02;;
33760;SDS011;20084;47.912;19.044;2023-03-04T06:14:42;15.30;;;8.40;;
33760;SDS011;20084;47.912;19.044;2023-03-04T06:17:08;15.93;;;9.57;;
33760;SDS011;20084;47.912;19.044;2023-03-04T06:19:33;17.65;;;10.57;;
33760;SDS011;20084;47.912;19.044;2023-03-04T06:22:02;16.17;;;9.32;;
33760;SDS011;20084;47.912;19.044;2023-03-04T06:24:28;13.85;;;7.30;;
33760;SDS011;20084;47.912;19.044;2023-03-04T06:26:54;17.63;;;9.27;;
33760;SDS011;20084;47.912;19.044;2023-03-04T06:29:19;15.05;;;9.13;;
33760;SDS011;20084;47.912;19.044;2023-03-04T06:31:45;19.77;;;12.15;;
33760;SDS011;20084;47.912;19.044;2023-03-04T06:34:11;13.60;;;8.27;;
33760;SDS011;20084;47.912;19.044;2023-03-04T06:36:37;14.95;;;9.05;;
33760;SDS011;20084;47.912;19.044;2023-03-04T06:39:03;14.85;;;9.23;;
33760;SDS011;20084;47.912;19.044;2023-03-04T06:41:30;16.95;;;10.57;;
33760;SDS011;20084;47.912;19.044;2023-03-04T06:43:55;17.38;;;10.95;;
33760;SDS011;20084;47.912;19.044;2023-03-04T06:46:21;20.83;;;11.50;;
33760;SDS011;20084;47.912;19.044;2023-03-04T06:48:47;21.52;;;11.98;;
33760;SDS011;20084;47.912;19.044;2023-03-04T06:51:13;18.08;;;11.52;;
33760;SDS011;20084;47.912;19.044;2023-03-04T06:53:39;16.98;;;10.23;;
33760;SDS011;20084;47.912;19.044;2023-03-04T06:56:06;19.42;;;11.52;;
33760;SDS011;20084;47.912;19.044;2023-03-04T06:58:34;19.15;;;11.48;;
33760;SDS011;20084;47.912;19.044;2023-03-04T07:03:45;20.73;;;11.63;;
33760;SDS011;20084;47.912;19.044;2023-03-04T07:06:12;19.48;;;10.88;;
33760;SDS011;20084;47.912;19.044;2023-03-04T07:08:39;19.10;;;11.73;;
33760;SDS011;20084;47.912;19.044;2023-03-04T07:11:05;22.02;;;11.98;;
33760;SDS011;20084;47.912;19.044;2023-03-04T07:13:31;20.67;;;11.93;;
33760;SDS011;20084;47.912;19.044;2023-03-04T07:15:58;19.77;;;11.57;;
33760;SDS011;20084;47.912;19.044;2023-03-04T07:18:24;21.02;;;11.90;;
33760;SDS011;20084;47.912;19.044;2023-03-04T07:20:53;16.95;;;10.02;;
33760;SDS011;20084;47.912;19.044;2023-03-04T07:23:18;19.75;;;11.70;;
33760;SDS011;20084;47.912;19.044;2023-03-04T07:25:44;17.08;;;10.52;;
33760;SDS011;20084;47.912;19.044;2023-03-04T07:28:10;20.23;;;11.18;;
33760;SDS011;20084;47.912;19.044;2023-03-04T07:30:36;18.25;;;10.65;;
33760;SDS011;20084;47.912;19.044;2023-03-04T07:33:02;21.70;;;12.65;;
33760;SDS011;20084;47.912;19.044;2023-03-04T07:35:27;16.70;;;11.88;;
33760;SDS011;20084;47.912;19.044;2023-03-04T07:37:53;21.45;;;14.02;;
33760;SDS011;20084;47.912;19.044;2023-03-04T07:40:19;20.45;;;14.07;;
33760;SDS011;20084;47.912;19.044;2023-03-04T07:42:54;22.67;;;12.98;;
33760;SDS011;20084;47.912;19.044;2023-03-04T07:45:20;21.15;;;12.77;;
33760;SDS011;20084;47.912;19.044;2023-03-04T07:47:47;21.63;;;13.30;;
33760;SDS011;20084;47.912;19.044;2023-03-04T07:50:13;26.50;;;13.18;;
33760;SDS011;20084;47.912;19.044;2023-03-04T07:52:41;18.88;;;12.88;;
33760;SDS011;20084;47.912;19.044;2023-03-04T07:55:09;17.50;;;11.77;;
33760;SDS011;20084;47.912;19.044;2023-03-04T07:57:43;19.05;;;12.77;;
33760;SDS011;20084;47.912;19.044;2023-03-04T08:00:11;20.00;;;12.10;;
33760;SDS011;20084;47.912;19.044;2023-03-04T08:02:38;18.08;;;11.95;;
33760;SDS011;20084;47.912;19.044;2023-03-04T08:05:04;17.63;;;11.52;;
33760;SDS011;20084;47.912;19.044;2023-03-04T08:07:30;17.45;;;10.93;;
33760;SDS011;20084;47.912;19.044;2023-03-04T08:09:56;19.67;;;12.40;;
33760;SDS011;20084;47.912;19.044;2023-03-04T08:12:22;19.17;;;11.30;;
33760;SDS011;20084;47.912;19.044;2023-03-04T08:14:50;15.15;;;10.95;;
33760;SDS011;20084;47.912;19.044;2023-03-04T08:17:16;16.38;;;10.55;;
33760;SDS011;20084;47.912;19.044;2023-03-04T08:19:42;14.57;;;10.65;;
33760;SDS011;20084;47.912;19.044;2023-03-04T08:22:08;16.73;;;11.43;;
33760;SDS011;20084;47.912;19.044;2023-03-04T08:24:34;17.15;;;11.77;;
33760;SDS011;20084;47.912;19.044;2023-03-04T08:27:00;17.35;;;12.20;;
33760;SDS011;20084;47.912;19.044;2023-03-04T08:29:26;17.02;;;11.18;;
33760;SDS011;20084;47.912;19.044;2023-03-04T08:31:52;18.58;;;11.00;;
33760;SDS011;20084;47.912;19.044;2023-03-04T08:34:20;16.48;;;10.95;;
33760;SDS011;20084;47.912;19.044;2023-03-04T08:36:47;17.92;;;11.38;;
33760;SDS011;20084;47.912;19.044;2023-03-04T08:39:13;16.20;;;10.88;;
33760;SDS011;20084;47.912;19.044;2023-03-04T08:41:40;13.30;;;9.05;;
33760;SDS011;20084;47.912;19.044;2023-03-04T08:44:06;12.65;;;8.50;;
33760;SDS011;20084;47.912;19.044;2023-03-04T08:46:34;14.30;;;8.68;;
33760;SDS011;20084;47.912;19.044;2023-03-04T08:49:00;11.90;;;7.45;;
33760;SDS011;20084;47.912;19.044;2023-03-04T08:51:26;9.38;;;6.38;;
33760;SDS011;20084;47.912;19.044;2023-03-04T08:53:54;8.75;;;6.32;;
33760;SDS011;20084;47.912;19.044;2023-03-04T08:56:20;8.55;;;6.15;;
33760;SDS011;20084;47.912;19.044;2023-03-04T08:58:45;7.55;;;5.63;;
33760;SDS011;20084;47.912;19.044;2023-03-04T09:01:12;9.30;;;4.65;;
33760;SDS011;20084;47.912;19.044;2023-03-04T09:03:38;9.75;;;5.10;;
33760;SDS011;20084;47.912;19.044;2023-03-04T09:06:05;8.23;;;5.10;;
33760;SDS011;20084;47.912;19.044;2023-03-04T09:08:33;7.97;;;3.72;;
33760;SDS011;20084;47.912;19.044;2023-03-04T09:11:00;6.95;;;4.10;;
33760;SDS011;20084;47.912;19.044;2023-03-04T09:13:27;5.70;;;4.45;;
33760;SDS011;20084;47.912;19.044;2023-03-04T09:15:53;6.47;;;3.63;;
33760;SDS011;20084;47.912;19.044;2023-03-04T09:18:20;6.18;;;3.30;;
33760;SDS011;20084;47.912;19.044;2023-03-04T09:20:47;5.38;;;3.00;;
33760;SDS011;20084;47.912;19.044;2023-03-04T09:23:12;6.43;;;4.05;;
33760;SDS011;20084;47.912;19.044;2023-03-04T09:25:38;7.32;;;4.30;;
33760;SDS011;20084;47.912;19.044;2023-03-04T09:28:05;5.53;;;4.00;;
33760;SDS011;20084;47.912;19.044;2023-03-04T09:30:32;5.47;;;2.88;;
33760;SDS011;20084;47.912;19.044;2023-03-04T09:32:58;4.13;;;2.75;;
33760;SDS011;20084;47.912;19.044;2023-03-04T09:35:25;4.10;;;3.47;;
33760;SDS011;20084;47.912;19.044;2023-03-04T09:37:51;10.50;;;3.65;;
33760;SDS011;20084;47.912;19.044;2023-03-04T09:40:27;7.72;;;3.67;;
33760;SDS011;20084;47.912;19.044;2023-03-04T09:43:02;5.78;;;3.90;;
33760;SDS011;20084;47.912;19.044;2023-03-04T09:45:52;6.40;;;3.88;;
33760;SDS011;20084;47.912;19.044;2023-03-04T09:48:22;5.55;;;4.00;;
33760;SDS011;20084;47.912;19.044;2023-03-04T09:51:00;4.93;;;4.03;;
33760;SDS011;20084;47.912;19.044;2023-03-04T09:56:08;3.80;;;2.90;;
33760;SDS011;20084;47.912;19.044;2023-03-04T10:04:16;8.13;;;5.57;;
33760;SDS011;20084;47.912;19.044;2023-03-04T10:06:45;12.23;;;7.55;;
33760;SDS011;20084;47.912;19.044;2023-03-04T10:12:10;13.95;;;8.18;;
33760;SDS011;20084;47.912;19.044;2023-03-04T10:17:06;12.05;;;7.97;;
33760;SDS011;20084;47.912;19.044;2023-03-04T10:22:32;11.02;;;7.07;;
33760;SDS011;20084;47.912;19.044;2023-03-04T10:25:19;21.13;;;7.75;;
33760;SDS011;20084;47.912;19.044;2023-03-04T10:27:56;10.55;;;7.65;;
33760;SDS011;20084;47.912;19.044;2023-03-04T10:33:16;10.75;;;8.13;;
33760;SDS011;20084;47.912;19.044;2023-03-04T10:36:00;9.10;;;7.18;;
33760;SDS011;20084;47.912;19.044;2023-03-04T10:38:39;11.38;;;7.95;;
33760;SDS011;20084;47.912;19.044;2023-03-04T10:41:22;12.05;;;7.97;;
33760;SDS011;20084;47.912;19.044;2023-03-04T10:43:59;12.60;;;8.98;;
33760;SDS011;20084;47.912;19.044;2023-03-04T10:46:29;10.80;;;7.38;;
33760;SDS011;20084;47.912;19.044;2023-03-04T10:48:56;8.35;;;6.20;;
33760;SDS011;20084;47.912;19.044;2023-03-04T10:51:24;7.82;;;5.80;;
33760;SDS011;20084;47.912;19.044;2023-03-04T10:53:56;14.68;;;8.82;;
33760;SDS011;20084;47.912;19.044;2023-03-04T10:56:35;10.45;;;7.53;;
33760;SDS011;20084;47.912;19.044;2023-03-04T10:59:46;13.82;;;9.90;;
33760;SDS011;20084;47.912;19.044;2023-03-04T11:02:00;11.38;;;8.45;;
33760;SDS011;20084;47.912;19.044;2023-03-04T11:04:51;16.85;;;11.07;;
33760;SDS011;20084;47.912;19.044;2023-03-04T11:07:25;11.23;;;8.07;;
33760;SDS011;20084;47.912;19.044;2023-03-04T11:09:51;12.15;;;7.75;;
33760;SDS011;20084;47.912;19.044;2023-03-04T11:12:19;11.15;;;7.80;;
33760;SDS011;20084;47.912;19.044;2023-03-04T11:14:47;14.52;;;10.50;;
33760;SDS011;20084;47.912;19.044;2023-03-04T11:17:25;13.38;;;8.57;;
33760;SDS011;20084;47.912;19.044;2023-03-04T11:22:34;13.27;;;9.70;;
33760;SDS011;20084;47.912;19.044;2023-03-04T11:25:06;13.18;;;9.07;;
33760;SDS011;20084;47.912;19.044;2023-03-04T11:27:46;13.30;;;8.85;;
33760;SDS011;20084;47.912;19.044;2023-03-04T11:35:52;10.75;;;7.97;;
33760;SDS011;20084;47.912;19.044;2023-03-04T11:38:38;11.93;;;8.20;;
33760;SDS011;20084;47.912;19.044;2023-03-04T11:41:13;11.52;;;8.63;;
33760;SDS011;20084;47.912;19.044;2023-03-04T11:43:45;10.70;;;8.10;;
33760;SDS011;20084;47.912;19.044;2023-03-04T11:54:51;12.10;;;7.80;;
33760;SDS011;20084;47.912;19.044;2023-03-04T12:03:22;10.25;;;7.80;;
33760;SDS011;20084;47.912;19.044;2023-03-04T12:11:16;10.57;;;7.18;;
33760;SDS011;20084;47.912;19.044;2023-03-04T12:22:34;12.68;;;7.95;;
33760;SDS011;20084;47.912;19.044;2023-03-04T12:25:52;11.27;;;7.40;;
33760;SDS011;20084;47.912;19.044;2023-03-04T12:42:19;13.60;;;8.32;;
33760;SDS011;20084;47.912;19.044;2023-03-04T12:48:01;10.13;;;7.15;;
33760;SDS011;20084;47.912;19.044;2023-03-04T12:53:57;9.55;;;6.25;;
33760;SDS011;20084;47.912;19.044;2023-03-04T12:56:53;11.40;;;7.40;;
33760;SDS011;20084;47.912;19.044;2023-03-04T12:59:19;10.73;;;7.18;;
33760;SDS011;20084;47.912;19.044;2023-03-04T13:04:28;10.70;;;6.43;;
33760;SDS011;20084;47.912;19.044;2023-03-04T13:09:57;8.73;;;6.18;;
33760;SDS011;20084;47.912;19.044;2023-03-04T13:12:23;11.27;;;6.80;;
33760;SDS011;20084;47.912;19.044;2023-03-04T13:17:39;10.65;;;7.03;;
33760;SDS011;20084;47.912;19.044;2023-03-04T13:25:39;12.65;;;6.93;;
33760;SDS011;20084;47.912;19.044;2023-03-04T13:31:03;12.05;;;7.60;;
33760;SDS011;20084;47.912;19.044;2023-03-04T13:43:48;14.10;;;7.72;;
33760;SDS011;20084;47.912;19.044;2023-03-04T13:51:16;13.18;;;7.32;;
33760;SDS011;20084;47.912;19.044;2023-03-04T13:56:33;10.73;;;7.45;;
33760;SDS011;20084;47.912;19.044;2023-03-04T14:01:32;11.15;;;8.48;;
33760;SDS011;20084;47.912;19.044;2023-03-04T14:04:21;13.23;;;8.30;;
33760;SDS011;20084;47.912;19.044;2023-03-04T14:06:47;14.95;;;7.80;;
33760;SDS011;20084;47.912;19.044;2023-03-04T14:09:15;12.27;;;7.95;;
33760;SDS011;20084;47.912;19.044;2023-03-04T14:11:59;11.32;;;7.97;;
33760;SDS011;20084;47.912;19.044;2023-03-04T14:14:54;11.65;;;8.65;;
33760;SDS011;20084;47.912;19.044;2023-03-04T14:17:23;12.20;;;8.32;;
33760;SDS011;20084;47.912;19.044;2023-03-04T14:19:52;12.50;;;8.95;;
33760;SDS011;20084;47.912;19.044;2023-03-04T14:22:25;11.45;;;8.20;;
33760;SDS011;20084;47.912;19.044;2023-03-04T14:27:38;14.05;;;8.07;;
33760;SDS011;20084;47.912;19.044;2023-03-04T14:30:07;11.77;;;8.65;;
33760;SDS011;20084;47.912;19.044;2023-03-04T14:32:43;13.40;;;9.18;;
33760;SDS011;20084;47.912;19.044;2023-03-04T14:35:25;13.13;;;8.63;;
33760;SDS011;20084;47.912;19.044;2023-03-04T14:40:26;14.77;;;8.10;;
33760;SDS011;20084;47.912;19.044;2023-03-04T14:42:57;9.98;;;7.15;;
33760;SDS011;20084;47.912;19.044;2023-03-04T14:45:32;10.68;;;8.00;;
33760;SDS011;20084;47.912;19.044;2023-03-04T14:47:59;13.77;;;8.65;;
33760;SDS011;20084;47.912;19.044;2023-03-04T14:50:29;14.18;;;9.57;;
33760;SDS011;20084;47.912;19.044;2023-03-04T14:55:33;13.93;;;9.35;;
33760;SDS011;20084;47.912;19.044;2023-03-04T14:58:06;16.33;;;10.20;;
33760;SDS011;20084;47.912;19.044;2023-03-04T15:00:34;11.75;;;8.43;;
33760;SDS011;20084;47.912;19.044;2023-03-04T15:03:21;11.98;;;9.02;;
33760;SDS011;20084;47.912;19.044;2023-03-04T15:05:50;10.52;;;8.32;;
33760;SDS011;20084;47.912;19.044;2023-03-04T15:08:20;11.10;;;8.75;;
33760;SDS011;20084;47.912;19.044;2023-03-04T15:10:58;8.98;;;7.45;;
33760;SDS011;20084;47.912;19.044;2023-03-04T15:13:37;13.27;;;9.73;;
33760;SDS011;20084;47.912;19.044;2023-03-04T15:16:04;10.65;;;8.38;;
33760;SDS011;20084;47.912;19.044;2023-03-04T15:18:31;11.85;;;9.00;;
33760;SDS011;20084;47.912;19.044;2023-03-04T15:23:26;9.85;;;8.27;;
33760;SDS011;20084;47.912;19.044;2023-03-04T15:26:00;13.05;;;9.25;;
33760;SDS011;20084;47.912;19.044;2023-03-04T15:28:35;11.30;;;9.05;;
33760;SDS011;20084;47.912;19.044;2023-03-04T15:31:02;13.18;;;10.45;;
33760;SDS011;20084;47.912;19.044;2023-03-04T15:33:29;12.00;;;9.68;;
33760;SDS011;20084;47.912;19.044;2023-03-04T15:35:57;12.18;;;9.93;;
33760;SDS011;20084;47.912;19.044;2023-03-04T15:38:25;12.00;;;10.13;;
33760;SDS011;20084;47.912;19.044;2023-03-04T15:40:52;12.35;;;9.32;;
33760;SDS011;20084;47.912;19.044;2023-03-04T15:43:20;12.73;;;9.50;;
33760;SDS011;20084;47.912;19.044;2023-03-04T15:45:48;13.55;;;9.80;;
33760;SDS011;20084;47.912;19.044;2023-03-04T15:48:15;12.55;;;9.35;;
33760;SDS011;20084;47.912;19.044;2023-03-04T15:56:02;8.27;;;7.47;;
33760;SDS011;20084;47.912;19.044;2023-03-04T15:58:31;10.75;;;7.47;;
33760;SDS011;20084;47.912;19.044;2023-03-04T16:00:58;8.40;;;6.95;;
33760;SDS011;20084;47.912;19.044;2023-03-04T16:03:24;11.10;;;8.07;;
33760;SDS011;20084;47.912;19.044;2023-03-04T16:05:50;10.77;;;8.00;;
33760;SDS011;20084;47.912;19.044;2023-03-04T16:08:18;10.05;;;7.65;;
33760;SDS011;20084;47.912;19.044;2023-03-04T16:10:46;13.90;;;8.90;;
33760;SDS011;20084;47.912;19.044;2023-03-04T16:13:17;10.80;;;7.65;;
33760;SDS011;20084;47.912;19.044;2023-03-04T16:15:46;11.85;;;8.27;;
33760;SDS011;20084;47.912;19.044;2023-03-04T16:18:13;12.00;;;8.02;;
33760;SDS011;20084;47.912;19.044;2023-03-04T16:20:41;9.68;;;7.78;;
33760;SDS011;20084;47.912;19.044;2023-03-04T16:23:11;11.93;;;8.18;;
33760;SDS011;20084;47.912;19.044;2023-03-04T16:25:43;12.82;;;8.40;;
33760;SDS011;20084;47.912;19.044;2023-03-04T16:28:11;14.60;;;9.77;;
33760;SDS011;20084;47.912;19.044;2023-03-04T16:30:38;15.05;;;11.00;;
33760;SDS011;20084;47.912;19.044;2023-03-04T16:33:04;30.95;;;21.88;;
33760;SDS011;20084;47.912;19.044;2023-03-04T16:35:32;30.13;;;20.35;;
33760;SDS011;20084;47.912;19.044;2023-03-04T16:38:00;17.50;;;8.65;;
33760;SDS011;20084;47.912;19.044;2023-03-04T16:40:27;14.07;;;8.77;;